sensor_id;sensor_type;location;lat;lon;timestamp;pressure;altitude;pressure_sealevel;temperature;humidity
6218;BME280;3142;48.206;11.550;2023-12-28T00:00:53;95953.97;;;6.95;50.75
6218;BME280;3142;48.206;11.550;2023-12-28T00:03:21;95959.00;;;6.97;51.03
6218;BME280;3142;48.206;11.550;2023-12-28T00:05:47;95954.94;;;7.02;50.95
6218;BME280;3142;48.206;11.550;2023-12-28T00:08:13;95952.78;;;7.06;50.52
6218;BME280;3142;48.206;11.550;2023-12-28T00:10:40;95954.06;;;7.10;49.89
6218;BME280;3142;48.206;11.550;2023-12-28T00:13:06;95954.88;;;7.10;50.20
6218;BME280;3142;48.206;11.550;2023-12-28T00:15:33;95954.69;;;7.12;50.20
6218;BME280;3142;48.206;11.550;2023-12-28T00:17:59;95955.00;;;7.17;49.17
6218;BME280;3142;48.206;11.550;2023-12-28T00:20:27;95955.28;;;7.22;49.27
6218;BME280;3142;48.206;11.550;2023-12-28T00:22:53;95953.16;;;7.26;48.41
6218;BME280;3142;48.206;11.550;2023-12-28T00:25:20;95954.91;;;7.33;48.51
6218;BME280;3142;48.206;11.550;2023-12-28T00:27:46;95958.59;;;7.39;48.47
6218;BME280;3142;48.206;11.550;2023-12-28T00:30:13;95956.47;;;7.42;48.15
6218;BME280;3142;48.206;11.550;2023-12-28T00:32:40;95955.47;;;7.43;47.89
6218;BME280;3142;48.206;11.550;2023-12-28T00:35:08;95947.16;;;7.48;48.19
6218;BME280;3142;48.206;11.550;2023-12-28T00:37:36;95940.94;;;7.49;47.56
6218;BME280;3142;48.206;11.550;2023-12-28T00:40:03;95934.59;;;7.52;47.03
6218;BME280;3142;48.206;11.550;2023-12-28T00:42:30;95937.19;;;7.52;46.57
6218;BME280;3142;48.206;11.550;2023-12-28T00:44:56;95947.41;;;7.53;46.19
6218;BME280;3142;48.206;11.550;2023-12-28T00:47:23;95949.41;;;7.51;47.01
6218;BME280;3142;48.206;11.550;2023-12-28T00:49:49;95957.03;;;7.53;46.53
6218;BME280;3142;48.206;11.550;2023-12-28T00:52:15;95957.50;;;7.56;46.80
6218;BME280;3142;48.206;11.550;2023-12-28T00:54:43;95959.22;;;7.64;45.88
6218;BME280;3142;48.206;11.550;2023-12-28T00:57:10;95959.16;;;7.72;45.88
6218;BME280;3142;48.206;11.550;2023-12-28T00:59:36;95969.84;;;7.77;45.44
6218;BME280;3142;48.206;11.550;2023-12-28T01:02:03;95967.72;;;7.81;45.02
6218;BME280;3142;48.206;11.550;2023-12-28T01:04:29;95966.66;;;7.90;44.54
6218;BME280;3142;48.206;11.550;2023-12-28T01:06:56;95967.91;;;7.94;43.93
6218;BME280;3142;48.206;11.550;2023-12-28T01:09:23;95969.38;;;7.96;44.32
6218;BME280;3142;48.206;11.550;2023-12-28T01:11:51;95970.47;;;8.02;44.85
6218;BME280;3142;48.206;11.550;2023-12-28T01:14:17;95974.94;;;8.08;43.96
6218;BME280;3142;48.206;11.550;2023-12-28T01:16:44;95982.44;;;8.11;43.47
6218;BME280;3142;48.206;11.550;2023-12-28T01:19:10;95981.28;;;8.14;44.00
6218;BME280;3142;48.206;11.550;2023-12-28T01:21:37;95981.81;;;8.09;44.00
6218;BME280;3142;48.206;11.550;2023-12-28T01:24:04;95988.97;;;8.07;43.71
6218;BME280;3142;48.206;11.550;2023-12-28T01:26:30;95997.94;;;8.05;44.46
6218;BME280;3142;48.206;11.550;2023-12-28T01:28:58;95997.94;;;8.05;43.68
6218;BME280;3142;48.206;11.550;2023-12-28T01:31:27;95997.16;;;8.04;44.20
6218;BME280;3142;48.206;11.550;2023-12-28T01:33:53;95998.94;;;8.03;43.93
6218;BME280;3142;48.206;11.550;2023-12-28T01:36:21;96005.50;;;7.99;45.46
6218;BME280;3142;48.206;11.550;2023-12-28T01:38:48;96011.78;;;8.05;44.51
6218;BME280;3142;48.206;11.550;2023-12-28T01:41:15;96008.00;;;8.08;43.36
6218;BME280;3142;48.206;11.550;2023-12-28T01:43:42;96006.53;;;8.13;44.87
6218;BME280;3142;48.206;11.550;2023-12-28T01:46:13;95999.78;;;8.19;44.11
6218;BME280;3142;48.206;11.550;2023-12-28T01:48:42;96002.88;;;8.22;43.04
6218;BME280;3142;48.206;11.550;2023-12-28T01:51:09;96004.38;;;8.17;44.35
6218;BME280;3142;48.206;11.550;2023-12-28T01:53:37;96009.94;;;8.14;44.75
6218;BME280;3142;48.206;11.550;2023-12-28T01:56:04;96001.84;;;8.09;44.13
6218;BME280;3142;48.206;11.550;2023-12-28T01:58:32;96006.69;;;8.12;44.53
6218;BME280;3142;48.206;11.550;2023-12-28T02:01:01;96004.91;;;8.12;45.02
6218;BME280;3142;48.206;11.550;2023-12-28T02:03:29;96020.63;;;8.19;43.50
6218;BME280;3142;48.206;11.550;2023-12-28T02:05:56;96011.63;;;8.21;43.85
6218;BME280;3142;48.206;11.550;2023-12-28T02:08:22;96012.13;;;8.25;44.02
6218;BME280;3142;48.206;11.550;2023-12-28T02:10:49;96012.00;;;8.18;44.50
6218;BME280;3142;48.206;11.550;2023-12-28T02:13:15;96002.38;;;8.19;44.63
6218;BME280;3142;48.206;11.550;2023-12-28T02:15:43;95997.47;;;8.24;45.14
6218;BME280;3142;48.206;11.550;2023-12-28T02:18:16;95997.47;;;8.24;44.14
6218;BME280;3142;48.206;11.550;2023-12-28T02:20:45;95994.88;;;8.24;44.73
6218;BME280;3142;48.206;11.550;2023-12-28T02:23:13;95993.88;;;8.25;43.74
6218;BME280;3142;48.206;11.550;2023-12-28T02:25:41;96004.63;;;8.22;43.91
6218;BME280;3142;48.206;11.550;2023-12-28T02:28:08;95996.91;;;8.14;44.88
6218;BME280;3142;48.206;11.550;2023-12-28T02:30:34;96002.28;;;8.12;45.13
6218;BME280;3142;48.206;11.550;2023-12-28T02:33:08;95999.41;;;8.07;44.17
6218;BME280;3142;48.206;11.550;2023-12-28T02:35:41;95999.75;;;8.04;44.53
6218;BME280;3142;48.206;11.550;2023-12-28T02:38:10;95995.72;;;8.01;45.33
6218;BME280;3142;48.206;11.550;2023-12-28T02:40:39;95996.88;;;7.99;45.13
6218;BME280;3142;48.206;11.550;2023-12-28T02:43:08;95999.66;;;7.97;44.19
6218;BME280;3142;48.206;11.550;2023-12-28T02:45:35;96002.53;;;8.02;44.81
6218;BME280;3142;48.206;11.550;2023-12-28T02:48:02;96002.34;;;8.04;45.04
6218;BME280;3142;48.206;11.550;2023-12-28T02:50:29;95994.53;;;8.04;44.65
6218;BME280;3142;48.206;11.550;2023-12-28T02:52:56;95995.00;;;8.08;44.96
6218;BME280;3142;48.206;11.550;2023-12-28T02:55:23;95999.25;;;8.09;44.33
6218;BME280;3142;48.206;11.550;2023-12-28T02:57:50;95998.25;;;8.10;45.04
6218;BME280;3142;48.206;11.550;2023-12-28T03:00:18;95996.09;;;8.13;44.54
6218;BME280;3142;48.206;11.550;2023-12-28T03:02:44;95992.50;;;8.14;44.84
6218;BME280;3142;48.206;11.550;2023-12-28T03:05:11;95997.09;;;8.12;43.64
6218;BME280;3142;48.206;11.550;2023-12-28T03:07:37;95989.69;;;8.01;44.92
6218;BME280;3142;48.206;11.550;2023-12-28T03:10:06;95986.34;;;7.92;44.14
6218;BME280;3142;48.206;11.550;2023-12-28T03:12:33;95989.28;;;7.89;44.96
6218;BME280;3142;48.206;11.550;2023-12-28T03:14:59;95988.13;;;7.92;44.36
6218;BME280;3142;48.206;11.550;2023-12-28T03:17:27;95983.00;;;7.84;45.28
6218;BME280;3142;48.206;11.550;2023-12-28T03:19:54;95972.09;;;7.80;43.96
6218;BME280;3142;48.206;11.550;2023-12-28T03:22:20;95978.47;;;7.78;44.90
6218;BME280;3142;48.206;11.550;2023-12-28T03:24:47;95982.06;;;7.77;44.80
6218;BME280;3142;48.206;11.550;2023-12-28T03:27:14;95974.72;;;7.80;43.88
6218;BME280;3142;48.206;11.550;2023-12-28T03:29:40;95968.38;;;7.83;44.20
6218;BME280;3142;48.206;11.550;2023-12-28T03:32:07;95964.59;;;7.85;44.10
6218;BME280;3142;48.206;11.550;2023-12-28T03:34:35;95964.25;;;7.88;43.64
6218;BME280;3142;48.206;11.550;2023-12-28T03:37:01;95966.97;;;7.95;42.96
6218;BME280;3142;48.206;11.550;2023-12-28T03:39:28;95971.91;;;8.05;42.53
6218;BME280;3142;48.206;11.550;2023-12-28T03:41:54;95974.53;;;8.19;43.28
6218;BME280;3142;48.206;11.550;2023-12-28T03:44:21;95975.72;;;8.31;42.18
6218;BME280;3142;48.206;11.550;2023-12-28T03:46:48;95972.69;;;8.43;41.85
6218;BME280;3142;48.206;11.550;2023-12-28T03:49:16;95974.06;;;8.53;41.64
6218;BME280;3142;48.206;11.550;2023-12-28T03:51:44;95978.91;;;8.56;40.91
6218;BME280;3142;48.206;11.550;2023-12-28T03:54:10;95979.53;;;8.58;42.22
6218;BME280;3142;48.206;11.550;2023-12-28T03:56:37;95987.53;;;8.57;40.97
6218;BME280;3142;48.206;11.550;2023-12-28T03:59:05;95996.59;;;8.61;41.84
6218;BME280;3142;48.206;11.550;2023-12-28T04:01:31;95993.38;;;8.59;42.16
6218;BME280;3142;48.206;11.550;2023-12-28T04:03:58;96000.03;;;8.61;41.98
6218;BME280;3142;48.206;11.550;2023-12-28T04:06:24;96001.50;;;8.64;41.86
6218;BME280;3142;48.206;11.550;2023-12-28T04:08:52;95998.59;;;8.59;42.07
6218;BME280;3142;48.206;11.550;2023-12-28T04:11:18;96004.00;;;8.57;42.33
6218;BME280;3142;48.206;11.550;2023-12-28T04:13:45;96008.59;;;8.55;41.62
6218;BME280;3142;48.206;11.550;2023-12-28T04:16:12;96007.78;;;8.55;42.05
6218;BME280;3142;48.206;11.550;2023-12-28T04:18:39;96002.75;;;8.53;41.32
6218;BME280;3142;48.206;11.550;2023-12-28T04:21:08;96010.75;;;8.52;41.55
6218;BME280;3142;48.206;11.550;2023-12-28T04:23:34;96017.56;;;8.53;41.80
6218;BME280;3142;48.206;11.550;2023-12-28T04:26:02;96018.56;;;8.52;42.69
6218;BME280;3142;48.206;11.550;2023-12-28T04:28:29;96011.81;;;8.43;42.63
6218;BME280;3142;48.206;11.550;2023-12-28T04:30:55;96017.41;;;8.31;43.17
6218;BME280;3142;48.206;11.550;2023-12-28T04:33:22;96015.00;;;8.30;43.29
6218;BME280;3142;48.206;11.550;2023-12-28T04:35:49;96009.78;;;8.30;42.26
6218;BME280;3142;48.206;11.550;2023-12-28T04:38:15;96013.00;;;8.32;43.06
6218;BME280;3142;48.206;11.550;2023-12-28T04:40:41;96015.63;;;8.32;42.68
6218;BME280;3142;48.206;11.550;2023-12-28T04:43:09;96016.78;;;8.29;42.60
6218;BME280;3142;48.206;11.550;2023-12-28T04:45:36;96017.59;;;8.30;42.24
6218;BME280;3142;48.206;11.550;2023-12-28T04:48:03;96014.53;;;8.26;43.12
6218;BME280;3142;48.206;11.550;2023-12-28T04:50:30;96009.50;;;8.25;43.29
6218;BME280;3142;48.206;11.550;2023-12-28T04:52:56;96018.13;;;8.25;43.37
6218;BME280;3142;48.206;11.550;2023-12-28T04:55:23;96016.13;;;8.13;42.87
6218;BME280;3142;48.206;11.550;2023-12-28T04:57:50;96020.41;;;8.06;43.55
6218;BME280;3142;48.206;11.550;2023-12-28T05:00:18;96012.41;;;8.07;43.31
6218;BME280;3142;48.206;11.550;2023-12-28T05:02:45;96010.97;;;8.05;42.76
6218;BME280;3142;48.206;11.550;2023-12-28T05:05:11;96016.56;;;8.01;43.00
6218;BME280;3142;48.206;11.550;2023-12-28T05:07:38;96026.16;;;8.01;42.70
6218;BME280;3142;48.206;11.550;2023-12-28T05:10:05;96026.16;;;8.01;42.93
6218;BME280;3142;48.206;11.550;2023-12-28T05:12:32;96028.59;;;8.02;43.24
6218;BME280;3142;48.206;11.550;2023-12-28T05:14:58;96039.81;;;8.03;43.24
6218;BME280;3142;48.206;11.550;2023-12-28T05:17:26;96041.44;;;8.04;42.36
6218;BME280;3142;48.206;11.550;2023-12-28T05:19:52;96044.69;;;8.06;43.31
6218;BME280;3142;48.206;11.550;2023-12-28T05:22:21;96050.19;;;8.11;43.24
6218;BME280;3142;48.206;11.550;2023-12-28T05:24:47;96046.25;;;8.15;42.68
6218;BME280;3142;48.206;11.550;2023-12-28T05:27:14;96037.78;;;8.13;42.17
6218;BME280;3142;48.206;11.550;2023-12-28T05:29:41;96041.03;;;8.15;41.95
6218;BME280;3142;48.206;11.550;2023-12-28T05:32:07;96034.38;;;8.13;42.09
6218;BME280;3142;48.206;11.550;2023-12-28T05:34:35;96035.38;;;8.12;42.96
6218;BME280;3142;48.206;11.550;2023-12-28T05:37:01;96038.16;;;8.10;42.57
6218;BME280;3142;48.206;11.550;2023-12-28T05:39:28;96036.19;;;8.12;42.91
6218;BME280;3142;48.206;11.550;2023-12-28T05:41:54;96038.41;;;8.15;42.26
6218;BME280;3142;48.206;11.550;2023-12-28T05:44:21;96036.09;;;8.20;42.60
6218;BME280;3142;48.206;11.550;2023-12-28T05:46:47;96042.09;;;8.21;41.97
6218;BME280;3142;48.206;11.550;2023-12-28T05:49:14;96040.50;;;8.20;42.30
6218;BME280;3142;48.206;11.550;2023-12-28T05:51:42;96045.88;;;8.18;41.82
6218;BME280;3142;48.206;11.550;2023-12-28T05:54:08;96047.22;;;8.14;41.84
6218;BME280;3142;48.206;11.550;2023-12-28T05:56:35;96048.75;;;8.09;42.89
6218;BME280;3142;48.206;11.550;2023-12-28T05:59:01;96040.28;;;8.07;42.67
6218;BME280;3142;48.206;11.550;2023-12-28T06:01:28;96039.94;;;8.10;41.98
6218;BME280;3142;48.206;11.550;2023-12-28T06:03:54;96043.34;;;8.10;42.67
6218;BME280;3142;48.206;11.550;2023-12-28T06:06:21;96030.50;;;8.09;42.40
6218;BME280;3142;48.206;11.550;2023-12-28T06:08:48;96029.34;;;8.11;42.72
6218;BME280;3142;48.206;11.550;2023-12-28T06:11:16;96031.41;;;8.16;42.06
6218;BME280;3142;48.206;11.550;2023-12-28T06:13:43;96035.47;;;8.18;42.20
6218;BME280;3142;48.206;11.550;2023-12-28T06:16:09;96038.69;;;8.20;42.24
6218;BME280;3142;48.206;11.550;2023-12-28T06:18:36;96033.97;;;8.24;40.88
6218;BME280;3142;48.206;11.550;2023-12-28T06:21:02;96032.59;;;8.28;41.60
6218;BME280;3142;48.206;11.550;2023-12-28T06:23:31;96036.22;;;8.27;41.03
6218;BME280;3142;48.206;11.550;2023-12-28T06:26:03;96031.63;;;8.29;40.78
6218;BME280;3142;48.206;11.550;2023-12-28T06:28:29;96036.28;;;8.33;41.71
6218;BME280;3142;48.206;11.550;2023-12-28T06:30:57;96032.72;;;8.35;40.68
6218;BME280;3142;48.206;11.550;2023-12-28T06:33:26;96041.03;;;8.38;41.38
6218;BME280;3142;48.206;11.550;2023-12-28T06:35:52;96035.44;;;8.41;40.94
6218;BME280;3142;48.206;11.550;2023-12-28T06:38:19;96043.09;;;8.43;41.21
6218;BME280;3142;48.206;11.550;2023-12-28T06:40:45;96039.13;;;8.47;40.40
6218;BME280;3142;48.206;11.550;2023-12-28T06:43:13;96039.59;;;8.50;40.57
6218;BME280;3142;48.206;11.550;2023-12-28T06:45:40;96041.03;;;8.53;39.83
6218;BME280;3142;48.206;11.550;2023-12-28T06:48:07;96038.25;;;8.54;40.81
6218;BME280;3142;48.206;11.550;2023-12-28T06:50:34;96044.53;;;8.60;40.04
6218;BME280;3142;48.206;11.550;2023-12-28T06:53:00;96047.97;;;8.60;40.20
6218;BME280;3142;48.206;11.550;2023-12-28T06:55:26;96041.56;;;8.63;39.88
6218;BME280;3142;48.206;11.550;2023-12-28T06:57:53;96043.03;;;8.66;40.67
6218;BME280;3142;48.206;11.550;2023-12-28T07:00:21;96043.28;;;8.71;40.30
6218;BME280;3142;48.206;11.550;2023-12-28T07:02:47;96041.50;;;8.71;41.02
6218;BME280;3142;48.206;11.550;2023-12-28T07:05:14;96043.75;;;8.74;40.25
6218;BME280;3142;48.206;11.550;2023-12-28T07:07:40;96032.13;;;8.77;40.96
6218;BME280;3142;48.206;11.550;2023-12-28T07:10:07;96048.63;;;8.77;40.24
6218;BME280;3142;48.206;11.550;2023-12-28T07:12:34;96044.38;;;8.76;39.98
6218;BME280;3142;48.206;11.550;2023-12-28T07:15:00;96038.34;;;8.76;40.53
6218;BME280;3142;48.206;11.550;2023-12-28T07:17:28;96043.41;;;8.77;39.66
6218;BME280;3142;48.206;11.550;2023-12-28T07:19:55;96036.38;;;8.78;40.93
6218;BME280;3142;48.206;11.550;2023-12-28T07:22:21;96039.16;;;8.76;40.49
6218;BME280;3142;48.206;11.550;2023-12-28T07:24:47;96046.00;;;8.77;40.56
6218;BME280;3142;48.206;11.550;2023-12-28T07:27:14;96041.50;;;8.86;40.96
6218;BME280;3142;48.206;11.550;2023-12-28T07:29:41;96046.50;;;9.17;39.21
6218;BME280;3142;48.206;11.550;2023-12-28T07:32:07;96042.50;;;9.50;39.48
6218;BME280;3142;48.206;11.550;2023-12-28T07:34:36;96039.53;;;9.75;39.09
6218;BME280;3142;48.206;11.550;2023-12-28T07:37:03;96028.66;;;9.93;38.01
6218;BME280;3142;48.206;11.550;2023-12-28T07:39:30;96040.25;;;10.12;38.03
6218;BME280;3142;48.206;11.550;2023-12-28T07:41:56;96041.66;;;10.29;37.57
6218;BME280;3142;48.206;11.550;2023-12-28T07:44:23;96043.81;;;10.47;37.39
6218;BME280;3142;48.206;11.550;2023-12-28T07:46:50;96042.09;;;10.60;37.36
6218;BME280;3142;48.206;11.550;2023-12-28T07:49:16;96036.34;;;10.72;37.49
6218;BME280;3142;48.206;11.550;2023-12-28T07:51:44;96036.81;;;10.88;37.08
6218;BME280;3142;48.206;11.550;2023-12-28T07:54:10;96050.00;;;11.02;36.79
6218;BME280;3142;48.206;11.550;2023-12-28T07:56:37;96053.88;;;11.12;36.59
6218;BME280;3142;48.206;11.550;2023-12-28T07:59:03;96049.88;;;11.23;36.72
6218;BME280;3142;48.206;11.550;2023-12-28T08:01:31;96046.91;;;11.33;36.63
6218;BME280;3142;48.206;11.550;2023-12-28T08:03:58;96049.56;;;11.39;36.67
6218;BME280;3142;48.206;11.550;2023-12-28T08:06:25;96045.34;;;11.45;36.29
6218;BME280;3142;48.206;11.550;2023-12-28T08:08:53;96060.91;;;11.60;36.08
6218;BME280;3142;48.206;11.550;2023-12-28T08:11:19;96050.88;;;11.70;35.98
6218;BME280;3142;48.206;11.550;2023-12-28T08:13:46;96060.81;;;11.88;36.38
6218;BME280;3142;48.206;11.550;2023-12-28T08:16:13;96055.38;;;12.02;35.57
6218;BME280;3142;48.206;11.550;2023-12-28T08:18:39;96060.06;;;12.20;36.24
6218;BME280;3142;48.206;11.550;2023-12-28T08:21:06;96064.50;;;12.33;35.79
6218;BME280;3142;48.206;11.550;2023-12-28T08:23:32;96063.88;;;12.44;34.82
6218;BME280;3142;48.206;11.550;2023-12-28T08:26:00;96054.81;;;12.53;34.73
6218;BME280;3142;48.206;11.550;2023-12-28T08:28:27;96065.50;;;12.65;34.15
6218;BME280;3142;48.206;11.550;2023-12-28T08:30:56;96072.97;;;12.81;35.35
6218;BME280;3142;48.206;11.550;2023-12-28T08:33:22;96062.22;;;12.96;34.36
6218;BME280;3142;48.206;11.550;2023-12-28T08:35:49;96060.16;;;13.11;34.65
6218;BME280;3142;48.206;11.550;2023-12-28T08:38:15;96069.69;;;13.19;34.41
6218;BME280;3142;48.206;11.550;2023-12-28T08:40:42;96048.84;;;13.30;33.54
6218;BME280;3142;48.206;11.550;2023-12-28T08:43:10;96052.81;;;13.40;32.93
6218;BME280;3142;48.206;11.550;2023-12-28T08:45:37;96057.81;;;13.54;33.27
6218;BME280;3142;48.206;11.550;2023-12-28T08:48:04;96066.06;;;13.64;33.11
6218;BME280;3142;48.206;11.550;2023-12-28T08:50:31;96063.28;;;13.53;33.82
6218;BME280;3142;48.206;11.550;2023-12-28T08:52:57;96067.22;;;13.30;34.33
6218;BME280;3142;48.206;11.550;2023-12-28T08:55:24;96058.56;;;13.17;33.96
6218;BME280;3142;48.206;11.550;2023-12-28T08:57:50;96069.25;;;13.15;34.50
6218;BME280;3142;48.206;11.550;2023-12-28T09:00:18;96066.63;;;13.22;34.65
6218;BME280;3142;48.206;11.550;2023-12-28T09:02:45;96067.44;;;13.22;33.30
6218;BME280;3142;48.206;11.550;2023-12-28T09:05:11;96060.59;;;13.21;34.08
6218;BME280;3142;48.206;11.550;2023-12-28T09:07:37;96060.38;;;13.23;34.01
6218;BME280;3142;48.206;11.550;2023-12-28T09:10:09;96062.38;;;13.27;33.94
6218;BME280;3142;48.206;11.550;2023-12-28T09:12:35;96065.78;;;13.34;34.44
6218;BME280;3142;48.206;11.550;2023-12-28T09:15:02;96068.81;;;13.38;34.75
6218;BME280;3142;48.206;11.550;2023-12-28T09:17:31;96065.59;;;13.36;34.18
6218;BME280;3142;48.206;11.550;2023-12-28T09:19:58;96070.00;;;13.42;33.73
6218;BME280;3142;48.206;11.550;2023-12-28T09:22:24;96060.28;;;13.43;33.92
6218;BME280;3142;48.206;11.550;2023-12-28T09:24:51;96063.13;;;13.41;33.27
6218;BME280;3142;48.206;11.550;2023-12-28T09:27:17;96059.47;;;13.42;33.55
6218;BME280;3142;48.206;11.550;2023-12-28T09:29:44;96060.91;;;13.45;33.17
6218;BME280;3142;48.206;11.550;2023-12-28T09:32:11;96054.06;;;13.37;32.91
6218;BME280;3142;48.206;11.550;2023-12-28T09:34:39;96052.81;;;13.40;33.88
6218;BME280;3142;48.206;11.550;2023-12-28T09:37:06;96058.28;;;13.45;33.75
6218;BME280;3142;48.206;11.550;2023-12-28T09:39:32;96057.59;;;13.56;33.24
6218;BME280;3142;48.206;11.550;2023-12-28T09:42:00;96059.03;;;13.58;33.24
6218;BME280;3142;48.206;11.550;2023-12-28T09:44:30;96058.41;;;13.56;34.47
6218;BME280;3142;48.206;11.550;2023-12-28T09:46:57;96064.47;;;13.63;34.13
6218;BME280;3142;48.206;11.550;2023-12-28T09:49:24;96065.47;;;13.62;33.80
6218;BME280;3142;48.206;11.550;2023-12-28T09:51:53;96054.09;;;13.69;34.08
6218;BME280;3142;48.206;11.550;2023-12-28T09:54:19;96054.25;;;13.80;33.61
6218;BME280;3142;48.206;11.550;2023-12-28T09:56:46;96054.81;;;13.89;34.08
6218;BME280;3142;48.206;11.550;2023-12-28T09:59:13;96054.97;;;13.94;34.23
6218;BME280;3142;48.206;11.550;2023-12-28T10:01:43;96056.00;;;13.93;33.47
6218;BME280;3142;48.206;11.550;2023-12-28T10:04:12;96049.13;;;13.92;33.35
6218;BME280;3142;48.206;11.550;2023-12-28T10:06:39;96045.75;;;13.85;33.97
6218;BME280;3142;48.206;11.550;2023-12-28T10:09:06;96049.41;;;13.77;33.61
6218;BME280;3142;48.206;11.550;2023-12-28T10:11:33;96054.91;;;13.76;33.81
6218;BME280;3142;48.206;11.550;2023-12-28T10:14:00;96053.50;;;13.73;34.06
6218;BME280;3142;48.206;11.550;2023-12-28T10:16:27;96053.50;;;13.73;33.43
6218;BME280;3142;48.206;11.550;2023-12-28T10:18:55;96055.28;;;13.79;33.36
6218;BME280;3142;48.206;11.550;2023-12-28T10:21:23;96054.25;;;13.80;34.16
6218;BME280;3142;48.206;11.550;2023-12-28T10:23:50;96035.25;;;13.78;34.36
6218;BME280;3142;48.206;11.550;2023-12-28T10:26:19;96037.50;;;13.75;34.42
6218;BME280;3142;48.206;11.550;2023-12-28T10:28:45;96041.59;;;13.71;33.60
6218;BME280;3142;48.206;11.550;2023-12-28T10:31:12;96044.59;;;13.68;33.70
6218;BME280;3142;48.206;11.550;2023-12-28T10:33:38;96036.56;;;13.62;33.39
6218;BME280;3142;48.206;11.550;2023-12-28T10:36:06;96032.09;;;13.63;34.01
6218;BME280;3142;48.206;11.550;2023-12-28T10:38:35;96028.44;;;13.64;33.99
6218;BME280;3142;48.206;11.550;2023-12-28T10:41:03;96019.34;;;13.67;34.37
6218;BME280;3142;48.206;11.550;2023-12-28T10:43:40;96012.69;;;13.64;33.77
6218;BME280;3142;48.206;11.550;2023-12-28T10:46:13;96013.84;;;13.68;33.89
6218;BME280;3142;48.206;11.550;2023-12-28T10:48:46;96014.25;;;13.72;32.91
6218;BME280;3142;48.206;11.550;2023-12-28T10:51:17;96019.72;;;13.70;33.69
6218;BME280;3142;48.206;11.550;2023-12-28T10:53:52;96013.84;;;13.68;33.50
6218;BME280;3142;48.206;11.550;2023-12-28T10:56:30;96014.72;;;13.62;33.14
6218;BME280;3142;48.206;11.550;2023-12-28T10:59:09;96020.78;;;13.56;33.88
6218;BME280;3142;48.206;11.550;2023-12-28T11:01:41;96009.53;;;13.49;32.81
6218;BME280;3142;48.206;11.550;2023-12-28T11:04:12;96006.72;;;13.44;34.55
6218;BME280;3142;48.206;11.550;2023-12-28T11:06:42;96002.88;;;13.40;33.59
6218;BME280;3142;48.206;11.550;2023-12-28T11:09:10;96005.72;;;13.38;32.81
6218;BME280;3142;48.206;11.550;2023-12-28T11:11:37;96001.09;;;13.33;33.08
6218;BME280;3142;48.206;11.550;2023-12-28T11:14:07;95995.66;;;13.28;34.10
6218;BME280;3142;48.206;11.550;2023-12-28T11:16:34;96001.13;;;13.27;34.17
6218;BME280;3142;48.206;11.550;2023-12-28T11:19:04;95989.44;;;13.23;33.45
6218;BME280;3142;48.206;11.550;2023-12-28T11:21:32;95993.28;;;13.20;34.87
6218;BME280;3142;48.206;11.550;2023-12-28T11:24:00;95988.03;;;13.20;33.57
6218;BME280;3142;48.206;11.550;2023-12-28T11:26:27;95995.09;;;13.20;35.01
6218;BME280;3142;48.206;11.550;2023-12-28T11:29:00;95984.59;;;13.20;34.41
6218;BME280;3142;48.206;11.550;2023-12-28T11:31:28;95983.97;;;13.18;34.75
6218;BME280;3142;48.206;11.550;2023-12-28T11:33:54;95981.16;;;13.13;35.37
6218;BME280;3142;48.206;11.550;2023-12-28T11:36:24;95980.75;;;13.09;35.48
6218;BME280;3142;48.206;11.550;2023-12-28T11:38:53;95973.72;;;13.03;35.75
6218;BME280;3142;48.206;11.550;2023-12-28T11:41:24;95972.91;;;13.02;36.26
6218;BME280;3142;48.206;11.550;2023-12-28T11:43:52;95976.94;;;13.05;35.34
6218;BME280;3142;48.206;11.550;2023-12-28T11:46:20;95966.63;;;13.10;35.85
6218;BME280;3142;48.206;11.550;2023-12-28T11:48:48;95972.25;;;13.20;35.18
6218;BME280;3142;48.206;11.550;2023-12-28T11:51:15;95972.66;;;13.24;34.84
6218;BME280;3142;48.206;11.550;2023-12-28T11:53:43;95966.75;;;13.28;34.85
6218;BME280;3142;48.206;11.550;2023-12-28T11:56:15;95959.50;;;13.30;34.52
6218;BME280;3142;48.206;11.550;2023-12-28T11:58:42;95963.31;;;13.34;35.04
6218;BME280;3142;48.206;11.550;2023-12-28T12:01:11;95967.31;;;13.37;34.53
6218;BME280;3142;48.206;11.550;2023-12-28T12:03:37;95975.63;;;13.34;34.54
6218;BME280;3142;48.206;11.550;2023-12-28T12:06:06;95970.00;;;13.30;34.56
6218;BME280;3142;48.206;11.550;2023-12-28T12:08:32;95977.06;;;13.30;34.88
6218;BME280;3142;48.206;11.550;2023-12-28T12:11:04;95975.47;;;13.22;34.97
6218;BME280;3142;48.206;11.550;2023-12-28T12:13:31;95971.66;;;13.18;34.69
6218;BME280;3142;48.206;11.550;2023-12-28T12:15:57;95966.78;;;13.15;34.60
6218;BME280;3142;48.206;11.550;2023-12-28T12:18:24;95967.63;;;13.09;35.19
6218;BME280;3142;48.206;11.550;2023-12-28T12:20:51;95956.94;;;13.04;34.91
6218;BME280;3142;48.206;11.550;2023-12-28T12:23:18;95956.34;;;13.02;35.70
6218;BME280;3142;48.206;11.550;2023-12-28T12:25:45;95961.19;;;12.98;35.52
6218;BME280;3142;48.206;11.550;2023-12-28T12:28:12;95952.94;;;12.95;36.28
6218;BME280;3142;48.206;11.550;2023-12-28T12:30:40;95962.25;;;12.91;36.27
6218;BME280;3142;48.206;11.550;2023-12-28T12:33:06;95952.75;;;12.90;35.66
6218;BME280;3142;48.206;11.550;2023-12-28T12:35:35;95947.31;;;12.91;35.79
6218;BME280;3142;48.206;11.550;2023-12-28T12:38:01;95952.75;;;12.90;35.28
6218;BME280;3142;48.206;11.550;2023-12-28T12:40:30;95947.69;;;12.88;35.24
6218;BME280;3142;48.206;11.550;2023-12-28T12:42:58;95955.56;;;12.88;35.18
6218;BME280;3142;48.206;11.550;2023-12-28T12:45:26;95954.16;;;12.86;35.33
6218;BME280;3142;48.206;11.550;2023-12-28T12:47:52;95954.97;;;12.86;36.15
6218;BME280;3142;48.206;11.550;2023-12-28T12:50:19;95953.56;;;12.84;35.92
6218;BME280;3142;48.206;11.550;2023-12-28T12:52:46;95952.97;;;12.82;35.78
6218;BME280;3142;48.206;11.550;2023-12-28T12:55:13;95948.16;;;12.79;36.97
6218;BME280;3142;48.206;11.550;2023-12-28T12:57:41;95939.25;;;12.80;36.93
6218;BME280;3142;48.206;11.550;2023-12-28T13:00:09;95944.50;;;12.80;37.24
6218;BME280;3142;48.206;11.550;2023-12-28T13:02:37;95941.28;;;12.78;36.13
6218;BME280;3142;48.206;11.550;2023-12-28T13:05:04;95944.13;;;12.76;37.17
6218;BME280;3142;48.206;11.550;2023-12-28T13:07:31;95944.13;;;12.76;36.49
6218;BME280;3142;48.206;11.550;2023-12-28T13:09:58;95939.06;;;12.74;37.86
6218;BME280;3142;48.206;11.550;2023-12-28T13:12:24;95946.13;;;12.74;37.36
6218;BME280;3142;48.206;11.550;2023-12-28T13:14:52;95947.78;;;12.75;38.07
6218;BME280;3142;48.206;11.550;2023-12-28T13:17:19;95949.75;;;12.73;37.50